sensor_id;sensor_type;location;lat;lon;timestamp;pressure;altitude;pressure_sealevel;temperature;humidity
82418;BME280;72059;53.734;10.260;2023-12-20T00:02:18;100410.95;;;3.46;100.00
82418;BME280;72059;53.734;10.260;2023-12-20T00:04:46;100412.05;;;3.43;100.00
82418;BME280;72059;53.734;10.260;2023-12-20T00:07:13;100405.38;;;3.38;100.00
82418;BME280;72059;53.734;10.260;2023-12-20T00:09:40;100409.45;;;3.34;100.00
82418;BME280;72059;53.734;10.260;2023-12-20T00:12:08;100402.58;;;3.33;100.00
82418;BME280;72059;53.734;10.260;2023-12-20T00:14:36;100399.36;;;3.29;100.00
82418;BME280;72059;53.734;10.260;2023-12-20T00:17:03;100396.23;;;3.27;100.00
82418;BME280;72059;53.734;10.260;2023-12-20T00:19:31;100397.00;;;3.26;100.00
82418;BME280;72059;53.734;10.260;2023-12-20T00:21:58;100396.53;;;3.25;100.00
82418;BME280;72059;53.734;10.260;2023-12-20T00:24:26;100397.52;;;3.27;100.00
82418;BME280;72059;53.734;10.260;2023-12-20T00:26:53;100392.22;;;3.24;100.00
82418;BME280;72059;53.734;10.260;2023-12-20T00:29:21;100383.88;;;3.19;100.00
82418;BME280;72059;53.734;10.260;2023-12-20T00:31:48;100378.10;;;3.15;100.00
82418;BME280;72059;53.734;10.260;2023-12-20T00:34:16;100372.23;;;3.10;100.00
82418;BME280;72059;53.734;10.260;2023-12-20T00:36:43;100377.26;;;3.08;100.00
82418;BME280;72059;53.734;10.260;2023-12-20T00:39:10;100372.23;;;3.10;100.00
82418;BME280;72059;53.734;10.260;2023-12-20T00:41:38;100373.38;;;3.15;100.00
82418;BME280;72059;53.734;10.260;2023-12-20T00:44:05;100365.64;;;3.21;100.00
82418;BME280;72059;53.734;10.260;2023-12-20T00:46:33;100366.88;;;3.28;100.00
82418;BME280;72059;53.734;10.260;2023-12-20T00:49:00;100361.28;;;3.27;100.00
82418;BME280;72059;53.734;10.260;2023-12-20T00:51:27;100347.53;;;3.25;100.00
82418;BME280;72059;53.734;10.260;2023-12-20T00:53:55;100345.51;;;3.19;100.00
82418;BME280;72059;53.734;10.260;2023-12-20T00:56:22;100346.90;;;3.14;100.00
82418;BME280;72059;53.734;10.260;2023-12-20T00:58:50;100349.69;;;3.11;100.00
82418;BME280;72059;53.734;10.260;2023-12-20T01:01:18;100360.22;;;3.08;100.00
82418;BME280;72059;53.734;10.260;2023-12-20T01:03:45;100350.31;;;3.06;100.00
82418;BME280;72059;53.734;10.260;2023-12-20T01:06:13;100349.33;;;3.04;100.00
82418;BME280;72059;53.734;10.260;2023-12-20T01:08:40;100350.52;;;3.03;100.00
82418;BME280;72059;53.734;10.260;2023-12-20T01:11:08;100346.52;;;3.00;100.00
82418;BME280;72059;53.734;10.260;2023-12-20T01:13:35;100344.73;;;2.99;100.00
82418;BME280;72059;53.734;10.260;2023-12-20T01:16:03;100346.43;;;2.98;100.00
82418;BME280;72059;53.734;10.260;2023-12-20T01:18:31;100345.48;;;3.04;100.00
82418;BME280;72059;53.734;10.260;2023-12-20T01:21:03;100343.77;;;3.12;100.00
82418;BME280;72059;53.734;10.260;2023-12-20T01:23:30;100338.84;;;3.15;100.00
82418;BME280;72059;53.734;10.260;2023-12-20T01:25:58;100333.25;;;3.14;100.00
82418;BME280;72059;53.734;10.260;2023-12-20T01:28:26;100341.63;;;3.11;100.00
82418;BME280;72059;53.734;10.260;2023-12-20T01:30:53;100342.41;;;3.10;100.00
82418;BME280;72059;53.734;10.260;2023-12-20T01:33:21;100329.05;;;3.07;100.00
82418;BME280;72059;53.734;10.260;2023-12-20T01:35:48;100331.03;;;3.05;100.00
82418;BME280;72059;53.734;10.260;2023-12-20T01:38:16;100329.95;;;3.01;100.00
82418;BME280;72059;53.734;10.260;2023-12-20T01:40:45;100328.63;;;3.00;100.00
82418;BME280;72059;53.734;10.260;2023-12-20T01:43:12;100330.95;;;3.03;100.00
82418;BME280;72059;53.734;10.260;2023-12-20T01:45:40;100334.97;;;3.06;100.00
82418;BME280;72059;53.734;10.260;2023-12-20T01:48:08;100331.70;;;3.09;100.00
82418;BME280;72059;53.734;10.260;2023-12-20T01:50:37;100322.50;;;3.13;100.00
82418;BME280;72059;53.734;10.260;2023-12-20T01:53:07;100321.02;;;3.16;100.00
82418;BME280;72059;53.734;10.260;2023-12-20T01:55:38;100326.14;;;3.16;100.00
82418;BME280;72059;53.734;10.260;2023-12-20T01:58:06;100316.38;;;3.17;100.00
82418;BME280;72059;53.734;10.260;2023-12-20T02:00:34;100317.12;;;3.23;100.00
82418;BME280;72059;53.734;10.260;2023-12-20T02:03:02;100314.41;;;3.28;100.00
82418;BME280;72059;53.734;10.260;2023-12-20T02:05:30;100316.05;;;3.34;100.00
82418;BME280;72059;53.734;10.260;2023-12-20T02:07:58;100326.55;;;3.39;100.00
82418;BME280;72059;53.734;10.260;2023-12-20T02:10:25;100314.53;;;3.38;100.00
82418;BME280;72059;53.734;10.260;2023-12-20T02:12:53;100313.20;;;3.37;100.00
82418;BME280;72059;53.734;10.260;2023-12-20T02:15:21;100307.98;;;3.35;100.00
82418;BME280;72059;53.734;10.260;2023-12-20T02:17:48;100306.30;;;3.36;100.00
82418;BME280;72059;53.734;10.260;2023-12-20T02:20:16;100301.83;;;3.40;100.00
82418;BME280;72059;53.734;10.260;2023-12-20T02:22:43;100302.42;;;3.42;100.00
82418;BME280;72059;53.734;10.260;2023-12-20T02:25:11;100292.87;;;3.40;100.00
82418;BME280;72059;53.734;10.260;2023-12-20T02:27:39;100288.64;;;3.40;100.00
82418;BME280;72059;53.734;10.260;2023-12-20T02:30:07;100291.94;;;3.46;100.00
82418;BME280;72059;53.734;10.260;2023-12-20T02:32:34;100286.52;;;3.48;100.00
82418;BME280;72059;53.734;10.260;2023-12-20T02:35:01;100278.52;;;3.50;100.00
82418;BME280;72059;53.734;10.260;2023-12-20T02:37:29;100274.77;;;3.52;100.00
82418;BME280;72059;53.734;10.260;2023-12-20T02:39:56;100274.28;;;3.51;100.00
82418;BME280;72059;53.734;10.260;2023-12-20T02:42:24;100271.73;;;3.51;100.00
82418;BME280;72059;53.734;10.260;2023-12-20T02:44:51;100276.52;;;3.53;100.00
82418;BME280;72059;53.734;10.260;2023-12-20T02:47:19;100266.06;;;3.56;100.00
82418;BME280;72059;53.734;10.260;2023-12-20T02:49:46;100272.69;;;3.61;100.00
82418;BME280;72059;53.734;10.260;2023-12-20T02:52:13;100268.16;;;3.64;100.00
82418;BME280;72059;53.734;10.260;2023-12-20T02:54:41;100259.84;;;3.68;100.00
82418;BME280;72059;53.734;10.260;2023-12-20T02:57:08;100253.50;;;3.69;100.00
82418;BME280;72059;53.734;10.260;2023-12-20T02:59:36;100252.64;;;3.69;100.00
82418;BME280;72059;53.734;10.260;2023-12-20T03:02:03;100245.77;;;3.68;100.00
82418;BME280;72059;53.734;10.260;2023-12-20T03:04:30;100237.83;;;3.63;100.00
82418;BME280;72059;53.734;10.260;2023-12-20T03:06:58;100246.53;;;3.67;100.00
82418;BME280;72059;53.734;10.260;2023-12-20T03:09:25;100243.50;;;3.66;100.00
82418;BME280;72059;53.734;10.260;2023-12-20T03:11:53;100236.63;;;3.65;100.00
82418;BME280;72059;53.734;10.260;2023-12-20T03:14:20;100228.48;;;3.64;100.00
82418;BME280;72059;53.734;10.260;2023-12-20T03:16:49;100231.09;;;3.65;100.00
82418;BME280;72059;53.734;10.260;2023-12-20T03:19:17;100229.81;;;3.65;100.00
82418;BME280;72059;53.734;10.260;2023-12-20T03:21:48;100222.86;;;3.63;100.00
82418;BME280;72059;53.734;10.260;2023-12-20T03:24:15;100225.84;;;3.62;100.00
82418;BME280;72059;53.734;10.260;2023-12-20T03:26:42;100219.34;;;3.60;100.00
82418;BME280;72059;53.734;10.260;2023-12-20T03:29:10;100222.21;;;3.58;100.00
82418;BME280;72059;53.734;10.260;2023-12-20T03:31:37;100202.54;;;3.57;100.00
82418;BME280;72059;53.734;10.260;2023-12-20T03:34:05;100202.45;;;3.56;100.00
82418;BME280;72059;53.734;10.260;2023-12-20T03:36:32;100205.48;;;3.57;100.00
82418;BME280;72059;53.734;10.260;2023-12-20T03:38:59;100204.72;;;3.58;100.00
82418;BME280;72059;53.734;10.260;2023-12-20T03:41:27;100200.45;;;3.58;100.00
82418;BME280;72059;53.734;10.260;2023-12-20T03:43:54;100201.91;;;3.62;100.00
82418;BME280;72059;53.734;10.260;2023-12-20T03:46:22;100200.70;;;3.63;100.00
82418;BME280;72059;53.734;10.260;2023-12-20T03:48:49;100202.08;;;3.65;100.00
82418;BME280;72059;53.734;10.260;2023-12-20T03:51:17;100193.58;;;3.66;100.00
82418;BME280;72059;53.734;10.260;2023-12-20T03:53:44;100189.36;;;3.66;100.00
82418;BME280;72059;53.734;10.260;2023-12-20T03:56:11;100184.16;;;3.65;100.00
82418;BME280;72059;53.734;10.260;2023-12-20T03:58:39;100179.03;;;3.65;100.00
82418;BME280;72059;53.734;10.260;2023-12-20T04:01:12;100173.91;;;3.65;99.98
82418;BME280;72059;53.734;10.260;2023-12-20T04:03:40;100172.80;;;3.68;99.95
82418;BME280;72059;53.734;10.260;2023-12-20T04:06:07;100169.27;;;3.66;99.92
82418;BME280;72059;53.734;10.260;2023-12-20T04:08:34;100163.67;;;3.65;99.93
82418;BME280;72059;53.734;10.260;2023-12-20T04:11:02;100165.34;;;3.64;99.94
82418;BME280;72059;53.734;10.260;2023-12-20T04:13:29;100161.03;;;3.63;99.89
82418;BME280;72059;53.734;10.260;2023-12-20T04:15:57;100153.27;;;3.62;99.87
82418;BME280;72059;53.734;10.260;2023-12-20T04:18:24;100148.61;;;3.63;99.87
82418;BME280;72059;53.734;10.260;2023-12-20T04:20:51;100154.55;;;3.62;99.87
82418;BME280;72059;53.734;10.260;2023-12-20T04:23:19;100150.31;;;3.62;99.86
82418;BME280;72059;53.734;10.260;2023-12-20T04:25:46;100150.79;;;3.63;99.84
82418;BME280;72059;53.734;10.260;2023-12-20T04:28:14;100140.94;;;3.63;99.74
82418;BME280;72059;53.734;10.260;2023-12-20T04:30:42;100141.44;;;3.64;99.69
82418;BME280;72059;53.734;10.260;2023-12-20T04:33:09;100130.78;;;3.64;99.63
82418;BME280;72059;53.734;10.260;2023-12-20T04:35:36;100125.58;;;3.63;99.51
82418;BME280;72059;53.734;10.260;2023-12-20T04:38:04;100131.59;;;3.63;99.45
82418;BME280;72059;53.734;10.260;2023-12-20T04:40:31;100122.08;;;3.60;99.42
82418;BME280;72059;53.734;10.260;2023-12-20T04:42:59;100117.34;;;3.60;99.40
82418;BME280;72059;53.734;10.260;2023-12-20T04:45:26;100109.02;;;3.64;99.43
82418;BME280;72059;53.734;10.260;2023-12-20T04:47:54;100120.62;;;3.66;99.43
82418;BME280;72059;53.734;10.260;2023-12-20T04:50:22;100111.48;;;3.71;99.38
82418;BME280;72059;53.734;10.260;2023-12-20T04:52:49;100112.77;;;3.71;99.40
82418;BME280;72059;53.734;10.260;2023-12-20T04:55:16;100111.02;;;3.70;99.35
82418;BME280;72059;53.734;10.260;2023-12-20T04:57:44;100118.39;;;3.72;99.30
82418;BME280;72059;53.734;10.260;2023-12-20T05:00:12;100108.15;;;3.72;99.27
82418;BME280;72059;53.734;10.260;2023-12-20T05:02:41;100111.17;;;3.73;99.20
82418;BME280;72059;53.734;10.260;2023-12-20T05:05:09;100106.95;;;3.73;99.14
82418;BME280;72059;53.734;10.260;2023-12-20T05:07:36;100101.41;;;3.74;99.14
82418;BME280;72059;53.734;10.260;2023-12-20T05:10:04;100105.59;;;3.72;99.05
82418;BME280;72059;53.734;10.260;2023-12-20T05:12:31;100097.48;;;3.72;98.88
82418;BME280;72059;53.734;10.260;2023-12-20T05:14:59;100093.26;;;3.73;98.83
82418;BME280;72059;53.734;10.260;2023-12-20T05:17:26;100097.98;;;3.73;98.77
82418;BME280;72059;53.734;10.260;2023-12-20T05:19:54;100109.55;;;3.75;98.38
82418;BME280;72059;53.734;10.260;2023-12-20T05:22:21;100088.30;;;3.76;98.13
82418;BME280;72059;53.734;10.260;2023-12-20T05:24:49;100084.03;;;3.77;97.94
82418;BME280;72059;53.734;10.260;2023-12-20T05:27:16;100084.20;;;3.80;97.79
82418;BME280;72059;53.734;10.260;2023-12-20T05:29:43;100094.13;;;3.82;97.64
82418;BME280;72059;53.734;10.260;2023-12-20T05:32:11;100088.59;;;3.82;97.46
82418;BME280;72059;53.734;10.260;2023-12-20T05:34:38;100078.50;;;3.85;97.07
82418;BME280;72059;53.734;10.260;2023-12-20T05:37:06;100081.48;;;3.85;97.10
82418;BME280;72059;53.734;10.260;2023-12-20T05:39:33;100082.81;;;3.86;97.17
82418;BME280;72059;53.734;10.260;2023-12-20T05:42:01;100102.10;;;3.88;96.73
82418;BME280;72059;53.734;10.260;2023-12-20T05:44:28;100093.30;;;3.91;96.29
82418;BME280;72059;53.734;10.260;2023-12-20T05:46:55;100100.75;;;3.95;95.92
82418;BME280;72059;53.734;10.260;2023-12-20T05:49:23;100092.80;;;3.98;95.74
82418;BME280;72059;53.734;10.260;2023-12-20T05:51:50;100093.12;;;4.05;95.66
82418;BME280;72059;53.734;10.260;2023-12-20T05:54:18;100092.05;;;4.09;95.37
82418;BME280;72059;53.734;10.260;2023-12-20T05:56:45;100095.23;;;4.14;95.19
82418;BME280;72059;53.734;10.260;2023-12-20T05:59:12;100093.25;;;4.16;95.24
82418;BME280;72059;53.734;10.260;2023-12-20T06:01:40;100081.30;;;4.17;95.50
82418;BME280;72059;53.734;10.260;2023-12-20T06:04:07;100080.45;;;4.16;95.55
82418;BME280;72059;53.734;10.260;2023-12-20T06:06:39;100080.45;;;4.16;95.59
82418;BME280;72059;53.734;10.260;2023-12-20T06:09:04;100064.10;;;4.14;95.53
82418;BME280;72059;53.734;10.260;2023-12-20T06:11:31;100064.18;;;4.16;95.47
82418;BME280;72059;53.734;10.260;2023-12-20T06:13:58;100069.38;;;4.17;95.61
82418;BME280;72059;53.734;10.260;2023-12-20T06:16:26;100070.20;;;4.16;95.68
82418;BME280;72059;53.734;10.260;2023-12-20T06:18:53;100062.98;;;4.17;95.82
82418;BME280;72059;53.734;10.260;2023-12-20T06:21:21;100050.09;;;4.16;95.74
82418;BME280;72059;53.734;10.260;2023-12-20T06:23:48;100054.87;;;4.18;95.47
82418;BME280;72059;53.734;10.260;2023-12-20T06:26:15;100045.44;;;4.17;95.50
82418;BME280;72059;53.734;10.260;2023-12-20T06:28:43;100041.86;;;4.13;95.46
82418;BME280;72059;53.734;10.260;2023-12-20T06:31:10;100049.00;;;4.10;95.53
82418;BME280;72059;53.734;10.260;2023-12-20T06:33:38;100041.16;;;4.07;95.44
82418;BME280;72059;53.734;10.260;2023-12-20T06:36:07;100035.33;;;4.02;95.40
82418;BME280;72059;53.734;10.260;2023-12-20T06:38:35;100043.25;;;3.98;95.65
82418;BME280;72059;53.734;10.260;2023-12-20T06:41:02;100032.80;;;3.93;95.94
82418;BME280;72059;53.734;10.260;2023-12-20T06:43:30;100025.78;;;3.89;96.18
82418;BME280;72059;53.734;10.260;2023-12-20T06:46:00;100028.38;;;3.91;96.46
82418;BME280;72059;53.734;10.260;2023-12-20T06:48:27;100027.60;;;3.92;96.54
82418;BME280;72059;53.734;10.260;2023-12-20T06:50:55;100029.20;;;3.90;96.62
82418;BME280;72059;53.734;10.260;2023-12-20T06:53:22;100023.61;;;3.89;96.78
82418;BME280;72059;53.734;10.260;2023-12-20T06:55:50;100014.14;;;3.96;96.29
82418;BME280;72059;53.734;10.260;2023-12-20T06:58:17;100020.74;;;4.09;95.65
82418;BME280;72059;53.734;10.260;2023-12-20T07:00:44;100009.48;;;4.15;95.36
82418;BME280;72059;53.734;10.260;2023-12-20T07:03:12;100003.70;;;4.19;95.29
82418;BME280;72059;53.734;10.260;2023-12-20T07:05:39;99999.16;;;4.22;95.10
82418;BME280;72059;53.734;10.260;2023-12-20T07:08:07;100005.29;;;4.26;94.91
82418;BME280;72059;53.734;10.260;2023-12-20T07:10:34;100004.90;;;4.26;95.11
82418;BME280;72059;53.734;10.260;2023-12-20T07:13:02;100007.84;;;4.26;95.05
82418;BME280;72059;53.734;10.260;2023-12-20T07:15:29;100010.41;;;4.26;95.19
82418;BME280;72059;53.734;10.260;2023-12-20T07:17:56;100001.59;;;4.29;94.92
82418;BME280;72059;53.734;10.260;2023-12-20T07:20:26;100012.23;;;4.28;94.96
82418;BME280;72059;53.734;10.260;2023-12-20T07:22:53;100007.45;;;4.26;94.99
82418;BME280;72059;53.734;10.260;2023-12-20T07:25:20;99996.24;;;4.24;95.08
82418;BME280;72059;53.734;10.260;2023-12-20T07:27:48;100007.77;;;4.24;95.21
82418;BME280;72059;53.734;10.260;2023-12-20T07:30:15;99997.60;;;4.26;94.95
82418;BME280;72059;53.734;10.260;2023-12-20T07:32:43;100001.91;;;4.27;94.83
82418;BME280;72059;53.734;10.260;2023-12-20T07:35:10;99994.77;;;4.29;94.72
82418;BME280;72059;53.734;10.260;2023-12-20T07:37:38;99997.09;;;4.33;94.43
82418;BME280;72059;53.734;10.260;2023-12-20T07:40:06;99990.41;;;4.36;94.32
82418;BME280;72059;53.734;10.260;2023-12-20T07:42:33;99989.12;;;4.36;94.22
82418;BME280;72059;53.734;10.260;2023-12-20T07:45:01;99990.91;;;4.37;94.48
82418;BME280;72059;53.734;10.260;2023-12-20T07:47:28;99986.09;;;4.35;94.72
82418;BME280;72059;53.734;10.260;2023-12-20T07:49:55;99982.64;;;4.35;94.96
82418;BME280;72059;53.734;10.260;2023-12-20T07:52:23;99976.58;;;4.33;94.98
82418;BME280;72059;53.734;10.260;2023-12-20T07:54:52;99971.31;;;4.30;95.22
82418;BME280;72059;53.734;10.260;2023-12-20T07:57:19;99975.47;;;4.28;95.62
82418;BME280;72059;53.734;10.260;2023-12-20T07:59:47;99966.85;;;4.26;95.58
82418;BME280;72059;53.734;10.260;2023-12-20T08:02:14;99967.24;;;4.25;95.66
82418;BME280;72059;53.734;10.260;2023-12-20T08:04:42;99969.80;;;4.25;95.77
82418;BME280;72059;53.734;10.260;2023-12-20T08:07:09;99957.53;;;4.28;95.90
82418;BME280;72059;53.734;10.260;2023-12-20T08:09:36;99957.53;;;4.28;95.46
82418;BME280;72059;53.734;10.260;2023-12-20T08:12:04;99965.80;;;4.30;95.31
82418;BME280;72059;53.734;10.260;2023-12-20T08:14:32;99949.25;;;4.33;95.19
82418;BME280;72059;53.734;10.260;2023-12-20T08:16:59;99954.53;;;4.36;95.11
82418;BME280;72059;53.734;10.260;2023-12-20T08:19:26;99945.70;;;4.40;95.20
82418;BME280;72059;53.734;10.260;2023-12-20T08:21:54;99949.77;;;4.44;94.80
82418;BME280;72059;53.734;10.260;2023-12-20T08:24:21;99941.48;;;4.50;94.60
82418;BME280;72059;53.734;10.260;2023-12-20T08:26:49;99933.72;;;4.48;94.35
82418;BME280;72059;53.734;10.260;2023-12-20T08:29:16;99932.77;;;4.56;94.19
82418;BME280;72059;53.734;10.260;2023-12-20T08:31:44;99934.86;;;4.55;94.04
82418;BME280;72059;53.734;10.260;2023-12-20T08:34:12;99924.36;;;4.59;93.50
82418;BME280;72059;53.734;10.260;2023-12-20T08:36:41;99920.62;;;4.62;93.45
82418;BME280;72059;53.734;10.260;2023-12-20T08:39:08;99900.19;;;4.63;93.67
82418;BME280;72059;53.734;10.260;2023-12-20T08:41:36;99908.02;;;4.67;93.02
82418;BME280;72059;53.734;10.260;2023-12-20T08:44:03;99911.41;;;4.66;93.31
82418;BME280;72059;53.734;10.260;2023-12-20T08:46:31;99902.42;;;4.66;92.77
82418;BME280;72059;53.734;10.260;2023-12-20T08:48:58;99899.19;;;4.70;92.71
82418;BME280;72059;53.734;10.260;2023-12-20T08:51:26;99904.70;;;4.79;92.77
82418;BME280;72059;53.734;10.260;2023-12-20T08:53:54;99912.25;;;4.86;92.48
82418;BME280;72059;53.734;10.260;2023-12-20T08:56:21;99894.64;;;4.94;92.32
82418;BME280;72059;53.734;10.260;2023-12-20T08:58:49;99899.17;;;4.89;91.97
82418;BME280;72059;53.734;10.260;2023-12-20T09:01:16;99898.89;;;4.83;92.58
82418;BME280;72059;53.734;10.260;2023-12-20T09:03:44;99901.32;;;4.80;93.00
82418;BME280;72059;53.734;10.260;2023-12-20T09:06:11;99897.76;;;4.76;93.20
82418;BME280;72059;53.734;10.260;2023-12-20T09:08:38;99929.60;;;4.72;93.60
82418;BME280;72059;53.734;10.260;2023-12-20T09:11:06;99903.85;;;4.69;94.03
82418;BME280;72059;53.734;10.260;2023-12-20T09:13:34;99892.56;;;4.65;94.72
82418;BME280;72059;53.734;10.260;2023-12-20T09:16:02;99916.70;;;4.60;95.06
82418;BME280;72059;53.734;10.260;2023-12-20T09:18:30;99908.09;;;4.58;95.14
82418;BME280;72059;53.734;10.260;2023-12-20T09:20:57;99908.69;;;4.53;95.27
82418;BME280;72059;53.734;10.260;2023-12-20T09:23:25;99931.48;;;4.46;94.58
82418;BME280;72059;53.734;10.260;2023-12-20T09:25:52;99939.97;;;4.35;93.99
82418;BME280;72059;53.734;10.260;2023-12-20T09:28:20;99946.55;;;4.20;94.16
82418;BME280;72059;53.734;10.260;2023-12-20T09:30:47;99942.19;;;4.09;94.57
82418;BME280;72059;53.734;10.260;2023-12-20T09:33:15;99945.69;;;4.02;94.74
82418;BME280;72059;53.734;10.260;2023-12-20T09:35:43;99938.73;;;3.99;95.34
82418;BME280;72059;53.734;10.260;2023-12-20T09:38:10;99942.89;;;3.97;95.66
82418;BME280;72059;53.734;10.260;2023-12-20T09:40:41;99941.96;;;3.95;95.56
82418;BME280;72059;53.734;10.260;2023-12-20T09:43:11;99948.83;;;3.96;96.08
82418;BME280;72059;53.734;10.260;2023-12-20T09:45:40;99936.95;;;3.98;95.91
82418;BME280;72059;53.734;10.260;2023-12-20T09:48:10;99942.00;;;3.96;94.64
82418;BME280;72059;53.734;10.260;2023-12-20T09:50:38;99940.10;;;3.92;94.28
82418;BME280;72059;53.734;10.260;2023-12-20T09:53:14;99947.44;;;3.84;94.43
82418;BME280;72059;53.734;10.260;2023-12-20T09:55:36;99947.67;;;3.81;94.67
82418;BME280;72059;53.734;10.260;2023-12-20T09:58:04;99948.67;;;3.75;94.68
82418;BME280;72059;53.734;10.260;2023-12-20T10:00:38;99952.88;;;3.82;94.97
82418;BME280;72059;53.734;10.260;2023-12-20T10:03:04;99946.43;;;3.72;93.56
82418;BME280;72059;53.734;10.260;2023-12-20T10:05:34;99947.51;;;3.68;94.08
82418;BME280;72059;53.734;10.260;2023-12-20T10:08:02;99936.41;;;3.59;93.83
82418;BME280;72059;53.734;10.260;2023-12-20T10:10:30;99939.86;;;3.51;94.18
82418;BME280;72059;53.734;10.260;2023-12-20T10:13:05;99922.86;;;3.43;94.23
82418;BME280;72059;53.734;10.260;2023-12-20T10:15:34;99923.59;;;3.41;94.58
82418;BME280;72059;53.734;10.260;2023-12-20T10:18:02;99926.47;;;3.39;94.65
82418;BME280;72059;53.734;10.260;2023-12-20T10:20:30;99943.36;;;3.35;94.60
82418;BME280;72059;53.734;10.260;2023-12-20T10:22:59;99941.27;;;3.36;94.21
82418;BME280;72059;53.734;10.260;2023-12-20T10:25:27;99943.56;;;3.40;94.37
82418;BME280;72059;53.734;10.260;2023-12-20T10:28:11;99940.86;;;3.45;94.27
82418;BME280;72059;53.734;10.260;2023-12-20T10:30:39;99933.34;;;3.48;94.08
82418;BME280;72059;53.734;10.260;2023-12-20T10:33:07;99934.51;;;3.55;94.24
82418;BME280;72059;53.734;10.260;2023-12-20T10:35:36;99933.30;;;3.56;93.92
82418;BME280;72059;53.734;10.260;2023-12-20T10:38:05;99924.89;;;3.59;94.33
82418;BME280;72059;53.734;10.260;2023-12-20T10:40:35;99933.30;;;3.56;94.12
82418;BME280;72059;53.734;10.260;2023-12-20T10:43:05;99924.58;;;3.53;94.49
82418;BME280;72059;53.734;10.260;2023-12-20T10:45:33;99914.84;;;3.45;94.44
82418;BME280;72059;53.734;10.260;2023-12-20T10:48:02;99924.37;;;3.40;94.83
82418;BME280;72059;53.734;10.260;2023-12-20T10:50:30;99920.33;;;3.35;94.81
82418;BME280;72059;53.734;10.260;2023-12-20T10:52:58;99928.70;;;3.32;95.06
82418;BME280;72059;53.734;10.260;2023-12-20T10:55:26;99923.09;;;3.40;95.22
82418;BME280;72059;53.734;10.260;2023-12-20T10:58:07;99931.87;;;3.53;94.84
82418;BME280;72059;53.734;10.260;2023-12-20T11:00:41;99929.75;;;3.63;94.36
82418;BME280;72059;53.734;10.260;2023-12-20T11:03:12;99934.87;;;3.63;94.38
82418;BME280;72059;53.734;10.260;2023-12-20T11:05:56;99950.72;;;3.55;94.62
82418;BME280;72059;53.734;10.260;2023-12-20T11:08:32;99978.98;;;3.49;95.29
82418;BME280;72059;53.734;10.260;2023-12-20T11:11:08;99967.18;;;3.42;96.17
82418;BME280;72059;53.734;10.260;2023-12-20T11:13:48;99942.48;;;3.26;94.45
82418;BME280;72059;53.734;10.260;2023-12-20T11:16:11;99938.83;;;3.21;94.73
82418;BME280;72059;53.734;10.260;2023-12-20T11:18:40;99919.77;;;3.24;95.10
82418;BME280;72059;53.734;10.260;2023-12-20T11:21:08;99949.27;;;3.26;95.70
82418;BME280;72059;53.734;10.260;2023-12-20T11:23:38;99928.80;;;3.26;95.27
82418;BME280;72059;53.734;10.260;2023-12-20T11:26:05;99921.47;;;3.24;94.17
82418;BME280;72059;53.734;10.260;2023-12-20T11:28:33;99927.37;;;3.23;94.37
82418;BME280;72059;53.734;10.260;2023-12-20T11:31:01;99937.86;;;3.19;94.31
82418;BME280;72059;53.734;10.260;2023-12-20T11:33:36;99938.98;;;3.16;94.32
82418;BME280;72059;53.734;10.260;2023-12-20T11:36:15;99941.16;;;3.08;94.42
82418;BME280;72059;53.734;10.260;2023-12-20T11:39:03;99942.11;;;3.02;94.75
82418;BME280;72059;53.734;10.260;2023-12-20T11:41:18;99935.81;;;2.95;95.08
82418;BME280;72059;53.734;10.260;2023-12-20T11:43:45;99932.28;;;2.93;95.66
82418;BME280;72059;53.734;10.260;2023-12-20T11:46:12;99927.98;;;2.92;96.20
82418;BME280;72059;53.734;10.260;2023-12-20T11:48:40;99933.26;;;2.95;96.62
82418;BME280;72059;53.734;10.260;2023-12-20T11:51:11;99922.00;;;3.00;96.55
82418;BME280;72059;53.734;10.260;2023-12-20T11:53:40;99919.98;;;3.02;96.66
82418;BME280;72059;53.734;10.260;2023-12-20T11:56:09;99924.03;;;3.07;96.89
82418;BME280;72059;53.734;10.260;2023-12-20T11:58:37;99918.86;;;3.14;97.06
82418;BME280;72059;53.734;10.260;2023-12-20T12:01:05;99925.96;;;3.19;96.84
82418;BME280;72059;53.734;10.260;2023-12-20T12:03:34;99916.02;;;3.26;96.75
82418;BME280;72059;53.734;10.260;2023-12-20T12:06:02;99915.05;;;3.32;96.38
82418;BME280;72059;53.734;10.260;2023-12-20T12:08:30;99912.39;;;3.39;96.10
82418;BME280;72059;53.734;10.260;2023-12-20T12:10:58;99914.72;;;3.42;95.63
82418;BME280;72059;53.734;10.260;2023-12-20T12:13:25;99915.73;;;3.46;95.68
82418;BME280;72059;53.734;10.260;2023-12-20T12:15:54;99907.40;;;3.50;95.63
82418;BME280;72059;53.734;10.260;2023-12-20T12:18:21;99911.39;;;3.53;95.42
82418;BME280;72059;53.734;10.260;2023-12-20T12:20:49;99904.27;;;3.56;95.12
82418;BME280;72059;53.734;10.260;2023-12-20T12:23:22;99904.30;;;3.66;94.88
82418;BME280;72059;53.734;10.260;2023-12-20T12:25:47;99902.63;;;3.84;94.77
82418;BME280;72059;53.734;10.260;2023-12-20T12:28:14;99901.30;;;3.93;94.55
82418;BME280;72059;53.734;10.260;2023-12-20T12:30:43;99904.98;;;3.90;94.86
82418;BME280;72059;53.734;10.260;2023-12-20T12:33:10;99901.00;;;3.86;95.17
82418;BME280;72059;53.734;10.260;2023-12-20T12:35:38;99892.45;;;3.86;95.63
82418;BME280;72059;53.734;10.260;2023-12-20T12:38:07;99893.00;;;3.89;95.60
82418;BME280;72059;53.734;10.260;2023-12-20T12:40:35;99885.34;;;3.98;95.29
82418;BME280;72059;53.734;10.260;2023-12-20T12:43:02;99884.82;;;4.06;94.15
82418;BME280;72059;53.734;10.260;2023-12-20T12:45:30;99881.05;;;4.07;93.51
82418;BME280;72059;53.734;10.260;2023-12-20T12:47:58;99888.81;;;4.09;92.22
82418;BME280;72059;53.734;10.260;2023-12-20T12:50:26;99883.77;;;4.10;92.18
82418;BME280;72059;53.734;10.260;2023-12-20T12:52:54;99884.77;;;4.14;91.88
82418;BME280;72059;53.734;10.260;2023-12-20T12:55:22;99874.38;;;4.11;92.14